Time;durP1;ratioP1;P1;durP2;ratioP2;P2;SDS_P1;SDS_P2;PMS_P1;PMS_P2;Temp;Humidity;BMP_temperature;BMP_pressure;BME280_temperature;BME280_humidity;BME280_pressure;Samples;Min_cycle;Max_cycle;Signal;HPM_P1;HPM_P2
2022/01/19 00:01:55;;;;;;;36.33;17.17;;;1.90;99.90;;;;;;10442722;28;20298;-75
2022/01/19 00:06:58;;;;;;;25.87;14.80;;;3.70;99.90;;;;;;10444867;28;20234;-74
2022/01/19 00:12:00;;;;;;;28.03;14.07;;;3.30;99.90;;;;;;10444992;28;20257;-74
2022/01/19 00:17:03;;;;;;;32.50;14.37;;;3.50;99.90;;;;;;10444393;28;20647;-76
2022/01/19 00:22:06;;;;;;;31.03;12.33;;;4.30;99.90;;;;;;10451296;28;20231;-75
2022/01/19 00:27:08;;;;;;;28.67;13.23;;;3.50;99.90;;;;;;10445418;28;20223;-75
2022/01/19 00:32:11;;;;;;;26.17;11.43;;;4.50;99.90;;;;;;10447517;28;20308;-76
2022/01/19 00:37:16;;;;;;;27.97;13.63;;;5.10;99.90;;;;;;10450512;28;20658;-75
2022/01/19 00:42:22;;;;;;;25.37;12.17;;;6.10;99.90;;;;;;10449857;28;20230;-75
2022/01/19 00:47:25;;;;;;;25.33;13.37;;;4.50;99.90;;;;;;10452226;28;20607;-75
2022/01/19 00:52:29;;;;;;;23.77;11.17;;;6.40;99.90;;;;;;10451128;28;20276;-75
2022/01/19 00:57:32;;;;;;;31.27;15.83;;;4.80;99.90;;;;;;10451522;28;20281;-74
2022/01/19 01:02:40;;;;;;;21.97;8.80;;;4.70;99.90;;;;;;10451519;28;20281;-75
2022/01/19 01:07:43;;;;;;;27.07;12.80;;;4.80;99.90;;;;;;10452687;28;20222;-74
2022/01/19 01:12:51;;;;;;;30.13;15.73;;;6.10;99.90;;;;;;10451797;28;20235;-74
2022/01/19 01:23:07;;;;;;;19.30;10.93;;;8.90;97.90;;;;;;10450087;28;20335;-75
2022/01/19 01:28:10;;;;;;;23.13;11.83;;;8.90;93.40;;;;;;10451339;28;20308;-75
2022/01/19 01:33:13;;;;;;;16.63;9.50;;;8.20;96.80;;;;;;10453513;28;20234;-75
2022/01/19 01:38:15;;;;;;;17.67;8.67;;;7.20;97.30;;;;;;10453003;28;20259;-75
2022/01/19 01:43:39;;;;;;;22.80;8.37;;;8.10;95.40;;;;;;10438232;28;20256;-74
2022/01/19 01:48:46;;;;;;;22.37;12.57;;;7.70;95.10;;;;;;10453097;28;20250;-75
2022/01/19 01:53:53;;;;;;;17.23;8.07;;;8.30;98.50;;;;;;10453177;28;20254;-74
2022/01/19 01:58:56;;;;;;;18.57;8.50;;;7.80;92.60;;;;;;10452458;28;20238;-74
2022/01/19 02:04:04;;;;;;;27.30;13.77;;;7.50;94.50;;;;;;10455552;28;20269;-74
2022/01/19 02:09:12;;;;;;;20.20;9.70;;;7.60;99.90;;;;;;10452213;28;20273;-75
2022/01/19 02:25:07;;;;;;;22.00;9.30;;;7.90;97.00;;;;;;10451876;28;20206;-75
2022/01/19 02:40:52;;;;;;;23.93;11.37;;;8.20;95.70;;;;;;10451867;28;20292;-75
2022/01/19 02:51:16;;;;;;;17.00;10.03;;;9.40;89.30;;;;;;10451647;28;20249;-75
2022/01/19 02:56:27;;;;;;;23.77;11.03;;;10.40;90.60;;;;;;10449932;28;20227;-75
2022/01/19 03:11:59;;;;;;;17.77;10.07;;;10.00;91.20;;;;;;10450907;28;20215;-77
2022/01/19 03:17:03;;;;;;;17.67;10.50;;;9.90;90.10;;;;;;10450474;28;20198;-75
2022/01/19 03:22:05;;;;;;;18.40;9.13;;;10.30;90.70;;;;;;10450526;28;20268;-76
2022/01/19 03:27:08;;;;;;;19.07;10.77;;;10.90;85.90;;;;;;10450052;28;20246;-76
2022/01/19 03:32:24;;;;;;;19.83;7.93;;;9.70;91.00;;;;;;10449842;28;20285;-76
2022/01/19 03:37:28;;;;;;;21.63;11.53;;;9.40;90.10;;;;;;10449467;28;20288;-75
2022/01/19 03:42:31;;;;;;;18.27;10.80;;;9.00;92.80;;;;;;10448790;28;20263;-75
2022/01/19 03:47:54;;;;;;;16.77;9.37;;;9.20;91.90;;;;;;10449023;28;20615;-75
2022/01/19 03:52:57;;;;;;;12.43;6.70;;;8.90;91.00;;;;;;10450423;28;20767;-75
2022/01/19 03:57:59;;;;;;;12.83;7.83;;;8.70;90.00;;;;;;10449041;28;20195;-75
2022/01/19 04:03:05;;;;;;;20.93;8.53;;;7.90;92.70;;;;;;10448681;28;20664;-74
2022/01/19 04:08:09;;;;;;;17.70;10.20;;;7.80;95.10;;;;;;10451760;28;20234;-75
2022/01/19 04:13:24;;;;;;;14.00;8.63;;;9.50;93.30;;;;;;10456872;28;20696;-75
2022/01/19 04:18:27;;;;;;;17.03;10.37;;;7.80;93.90;;;;;;10457033;28;20639;-74
2022/01/19 04:23:29;;;;;;;15.83;7.93;;;7.30;97.50;;;;;;10457018;28;20300;-75
2022/01/19 04:28:33;;;;;;;13.50;8.90;;;8.80;93.00;;;;;;10456081;28;20223;-74
2022/01/19 04:33:41;;;;;;;15.27;8.00;;;8.30;94.00;;;;;;10456185;28;20238;-75
2022/01/19 04:44:33;;;;;;;18.63;9.57;;;10.30;89.40;;;;;;10456082;28;20202;-75
2022/01/19 05:01:31;;;;;;;13.47;9.23;;;10.30;89.00;;;;;;10455983;28;20199;-74
2022/01/19 05:05:55;;;;;;;13.73;8.00;;;8.10;90.90;;;;;;10454888;28;20206;-75
2022/01/19 05:16:21;;;;;;;14.73;8.67;;;8.60;92.10;;;;;;10454784;28;20667;-75
2022/01/19 05:21:24;;;;;;;15.33;8.93;;;9.40;91.80;;;;;;10454338;28;20608;-74
2022/01/19 05:26:46;;;;;;;14.40;8.33;;;9.60;91.90;;;;;;10458115;28;20234;-75
2022/01/19 05:31:58;;;;;;;14.43;8.27;;;10.10;89.10;;;;;;10439816;28;20223;-74
2022/01/19 05:37:01;;;;;;;13.97;8.03;;;9.10;91.50;;;;;;10453643;28;20231;-75
2022/01/19 05:42:24;;;;;;;17.33;9.30;;;8.50;93.10;;;;;;10439046;28;20285;-75
2022/01/19 05:47:27;;;;;;;14.00;6.90;;;8.80;93.50;;;;;;10453262;28;20207;-75
2022/01/19 05:52:29;;;;;;;12.47;7.97;;;9.50;88.10;;;;;;10455030;28;20634;-74
2022/01/19 05:57:32;;;;;;;13.90;7.47;;;9.50;90.30;;;;;;10453135;28;20218;-74
2022/01/19 06:02:36;;;;;;;12.77;8.50;;;10.00;90.50;;;;;;10452435;28;20242;-75
2022/01/19 06:07:43;;;;;;;15.00;7.90;;;9.80;90.80;;;;;;10465016;28;20221;-75
2022/01/19 06:13:00;;;;;;;17.03;8.47;;;9.70;89.60;;;;;;10452607;28;20852;-74
2022/01/19 06:18:03;;;;;;;14.73;7.43;;;7.50;91.90;;;;;;10452026;28;20256;-74
2022/01/19 06:23:06;;;;;;;12.60;8.47;;;10.10;87.50;;;;;;10451238;28;20246;-75
2022/01/19 06:28:14;;;;;;;10.57;7.00;;;9.80;90.80;;;;;;10452023;28;20207;-75
2022/01/19 06:33:17;;;;;;;13.57;8.67;;;8.90;87.70;;;;;;10451484;28;20696;-75
2022/01/19 06:38:21;;;;;;;17.97;8.30;;;8.20;93.70;;;;;;10450387;28;20254;-75
2022/01/19 06:43:44;;;;;;;11.87;6.70;;;8.90;89.10;;;;;;10451213;28;20599;-75
2022/01/19 06:48:47;;;;;;;13.43;5.83;;;6.90;94.10;;;;;;10451226;28;20238;-75
2022/01/19 06:53:52;;;;;;;9.10;6.03;;;7.60;94.40;;;;;;10450954;28;20540;-75
2022/01/19 06:59:00;;;;;;;16.87;7.40;;;8.70;92.60;;;;;;10450557;28;20811;-74
2022/01/19 07:04:14;;;;;;;10.83;6.10;;;10.10;88.40;;;;;;10449919;28;20264;-75
2022/01/19 07:09:17;;;;;;;14.97;7.07;;;9.00;90.00;;;;;;10450046;28;20258;-75
2022/01/19 07:14:25;;;;;;;12.57;6.57;;;9.50;89.50;;;;;;10450195;28;20227;-75
2022/01/19 07:19:31;;;;;;;10.60;6.43;;;10.30;86.30;;;;;;10443035;28;20273;-75
2022/01/19 07:24:34;;;;;;;15.83;6.60;;;10.90;84.50;;;;;;10443120;28;20222;-75
2022/01/19 07:29:38;;;;;;;11.20;6.63;;;9.90;85.40;;;;;;10448539;28;20258;-75
2022/01/19 07:34:41;;;;;;;13.20;7.80;;;9.30;90.40;;;;;;10447606;28;20239;-75
2022/01/19 07:39:46;;;;;;;16.23;8.47;;;8.30;90.70;;;;;;10440638;28;20308;-75
2022/01/19 07:44:49;;;;;;;10.77;6.80;;;9.50;87.90;;;;;;10430528;28;20234;-75
2022/01/19 07:50:04;;;;;;;12.77;7.30;;;8.80;91.30;;;;;;10446249;28;20296;-75
2022/01/19 07:55:22;;;;;;;12.33;6.43;;;10.10;89.20;;;;;;10440387;28;20226;-75
2022/01/19 08:00:38;;;;;;;15.43;7.67;;;10.50;85.00;;;;;;10454438;28;20233;-75
2022/01/19 08:06:10;;;;;;;12.57;8.30;;;9.80;85.00;;;;;;10402898;28;20323;-75
2022/01/19 08:11:13;;;;;;;11.33;7.40;;;8.80;90.30;;;;;;10401928;28;20329;-75
2022/01/19 08:16:21;;;;;;;17.47;10.10;;;8.80;91.50;;;;;;10385550;28;20672;-75
2022/01/19 08:21:24;;;;;;;27.87;11.20;;;8.10;90.20;;;;;;10385993;28;20677;-75
2022/01/19 08:26:33;;;;;;;27.33;14.00;;;7.30;92.90;;;;;;10385868;28;20609;-75
2022/01/19 08:31:40;;;;;;;18.43;10.90;;;7.00;95.30;;;;;;10378261;28;20259;-75
2022/01/19 08:36:44;;;;;;;18.40;11.53;;;7.60;95.50;;;;;;10363451;28;20279;-75
2022/01/19 08:41:57;;;;;;;22.40;11.47;;;7.10;94.90;;;;;;10390101;28;20293;-75
2022/01/19 08:46:59;;;;;;;14.00;9.03;;;8.40;91.10;;;;;;10417639;28;20255;-75
2022/01/19 08:52:45;;;;;;;19.20;10.83;;;8.60;92.00;;;;;;10449060;28;20311;-75
2022/01/19 08:57:58;;;;;;;15.73;9.20;;;7.60;93.50;;;;;;10455213;28;20733;-75
2022/01/19 09:03:01;;;;;;;16.67;9.20;;;7.20;98.50;;;;;;10456362;28;20234;-75
2022/01/19 09:08:05;;;;;;;25.80;14.47;;;7.60;95.50;;;;;;10454446;28;20618;-75
2022/01/19 09:13:09;;;;;;;16.37;10.70;;;6.30;97.80;;;;;;10455700;28;20302;-76
2022/01/19 09:18:11;;;;;;;23.57;13.83;;;6.60;98.00;;;;;;10451309;28;20260;-75
2022/01/19 09:23:14;;;;;;;17.40;10.63;;;7.40;94.40;;;;;;10450383;28;20230;-75
2022/01/19 09:28:16;;;;;;;22.53;12.83;;;8.70;94.00;;;;;;10448031;28;20238;-75
2022/01/19 09:33:20;;;;;;;16.80;11.47;;;9.60;89.10;;;;;;10448178;28;20250;-75
2022/01/19 09:38:29;;;;;;;23.40;14.30;;;10.20;86.70;;;;;;10452234;28;20253;-74
2022/01/19 09:43:31;;;;;;;19.67;11.53;;;8.60;91.00;;;;;;10125570;28;9999722;-79
2022/01/19 09:48:34;;;;;;;29.43;14.90;;;9.30;91.00;;;;;;10453407;28;20315;-78
2022/01/19 09:53:37;;;;;;;18.27;10.20;;;8.40;95.20;;;;;;10450369;28;20292;-77
2022/01/19 09:58:39;;;;;;;15.70;9.93;;;9.00;93.60;;;;;;10448174;28;20206;-77
2022/01/19 10:03:41;;;;;;;28.13;15.87;;;9.30;91.50;;;;;;10451417;28;20234;-76
2022/01/19 10:08:50;;;;;;;28.97;17.43;;;6.40;94.30;;;;;;10451375;28;20268;-75
2022/01/19 10:20:00;;;;;;;18.93;10.93;;;6.50;96.70;;;;;;10451077;28;20675;-75
2022/01/19 10:25:04;;;;;;;14.50;9.90;;;8.20;96.70;;;;;;10447314;28;20277;-75
2022/01/19 10:30:07;;;;;;;15.13;10.13;;;9.40;93.20;;;;;;10452622;28;20258;-75
2022/01/19 10:35:22;;;;;;;17.50;11.47;;;9.70;90.80;;;;;;10448658;28;20253;-76
2022/01/19 10:40:24;;;;;;;16.77;11.03;;;10.60;87.70;;;;;;10480622;28;20320;-75
2022/01/19 10:45:31;;;;;;;22.33;12.70;;;9.90;87.50;;;;;;10451156;28;20631;-75
2022/01/19 10:50:33;;;;;;;19.33;11.40;;;9.10;89.30;;;;;;10458080;28;20300;-75
2022/01/19 10:55:40;;;;;;;16.33;10.47;;;10.50;86.80;;;;;;10450990;28;20223;-75
2022/01/19 11:00:51;;;;;;;16.37;9.80;;;9.80;90.50;;;;;;10449977;28;20616;-76
2022/01/19 11:05:59;;;;;;;14.03;10.73;;;10.40;87.10;;;;;;10450421;28;20584;-77
2022/01/19 11:11:02;;;;;;;17.50;10.83;;;11.10;84.00;;;;;;10466091;28;20306;-76
2022/01/19 11:16:06;;;;;;;29.27;16.83;;;10.90;84.90;;;;;;10490772;28;20225;-75
2022/01/19 11:21:11;;;;;;;42.33;23.20;;;7.70;92.50;;;;;;10463813;28;20693;-75
2022/01/19 11:26:21;;;;;;;16.93;11.43;;;8.10;91.80;;;;;;10439784;28;20234;-76
2022/01/19 11:31:24;;;;;;;33.07;21.00;;;8.80;93.20;;;;;;10445568;28;20254;-76
2022/01/19 11:36:35;;;;;;;37.47;21.50;;;8.20;92.10;;;;;;10444042;28;20247;-78
2022/01/19 11:41:53;;;;;;;39.10;22.63;;;7.60;93.10;;;;;;10445535;28;20239;-77
2022/01/19 11:47:25;;;;;;;51.87;27.23;;;6.20;98.60;;;;;;10449394;28;20303;-76
2022/01/19 11:52:51;;;;;;;42.37;25.97;;;5.80;99.90;;;;;;10415592;28;20293;-77
2022/01/19 11:58:13;;;;;;;38.73;23.10;;;6.00;99.90;;;;;;10436749;28;20360;-76
2022/01/19 12:03:31;;;;;;;50.37;27.40;;;7.50;95.50;;;;;;10448187;28;20230;-76
2022/01/19 12:08:57;;;;;;;34.53;20.97;;;4.70;99.90;;;;;;10486860;28;20230;-77
2022/01/19 12:14:24;;;;;;;42.03;22.83;;;5.00;99.90;;;;;;10505715;28;20320;-77
2022/01/19 12:19:29;;;;;;;34.40;19.87;;;4.60;99.90;;;;;;10455704;28;20234;-76
2022/01/19 12:24:44;;;;;;;37.47;19.33;;;4.40;99.90;;;;;;10449252;28;20654;-79
2022/01/19 12:29:59;;;;;;;33.50;18.47;;;4.40;99.90;;;;;;10443065;28;20222;-78
2022/01/19 12:35:05;;;;;;;30.37;19.00;;;4.10;99.90;;;;;;10458985;28;20251;-78
2022/01/19 12:40:17;;;;;;;36.47;18.37;;;4.00;99.90;;;;;;10480118;28;20710;-77
2022/01/19 12:45:26;;;;;;;42.50;23.13;;;4.00;99.90;;;;;;10454161;28;20226;-77
2022/01/19 12:50:28;;;;;;;49.50;25.33;;;4.10;99.90;;;;;;10463980;28;20680;-76
2022/01/19 12:55:36;;;;;;;45.07;23.80;;;4.00;99.90;;;;;;10450362;28;20246;-77
2022/01/19 13:00:39;;;;;;;50.27;27.33;;;4.10;99.90;;;;;;10452443;28;20316;-77
2022/01/19 13:05:51;;;;;;;57.50;29.57;;;4.20;99.90;;;;;;10446724;28;20298;-76
2022/01/19 13:11:01;;;;;;;54.47;27.70;;;4.20;99.90;;;;;;10450038;28;20258;-76
2022/01/19 13:16:06;;;;;;;45.87;25.53;;;4.30;99.90;;;;;;10453028;28;20229;-76
2022/01/19 13:21:20;;;;;;;37.57;22.00;;;4.40;99.90;;;;;;10451063;28;20257;-77
2022/01/19 13:26:24;;;;;;;31.70;19.63;;;4.50;99.90;;;;;;10453366;28;20737;-78
2022/01/19 13:31:27;;;;;;;38.90;20.40;;;4.80;99.90;;;;;;10451274;28;20703;-78
2022/01/19 13:36:32;;;;;;;40.63;21.20;;;4.60;99.90;;;;;;10100313;28;10000110;-78
2022/01/19 13:41:42;;;;;;;36.57;19.00;;;5.20;99.90;;;;;;10447058;28;20233;-78
2022/01/19 13:46:44;;;;;;;31.73;18.97;;;5.50;99.90;;;;;;10446841;28;20687;-78
2022/01/19 13:51:47;;;;;;;34.83;17.70;;;5.00;99.90;;;;;;10446465;28;20277;-78
2022/01/19 13:56:59;;;;;;;52.37;25.67;;;4.60;99.90;;;;;;10445718;28;20222;-78
2022/01/19 14:02:13;;;;;;;45.00;21.80;;;4.80;99.90;;;;;;10447601;28;20235;-78
2022/01/19 14:07:17;;;;;;;35.03;17.87;;;4.50;99.90;;;;;;10462183;28;20230;-78
2022/01/19 14:12:21;;;;;;;37.83;19.50;;;4.60;99.90;;;;;;10461559;28;20376;-78
2022/01/19 14:17:40;;;;;;;40.60;20.93;;;4.50;99.90;;;;;;10446443;28;20280;-78
2022/01/19 14:22:42;;;;;;;53.53;24.23;;;4.50;99.90;;;;;;10445869;28;20242;-78
2022/01/19 14:27:55;;;;;;;47.67;25.33;;;4.30;99.90;;;;;;10444253;28;20380;-78
2022/01/19 14:33:09;;;;;;;51.37;25.40;;;4.20;99.90;;;;;;10444535;28;20243;-78
2022/01/19 14:38:23;;;;;;;48.50;22.50;;;4.00;99.90;;;;;;10445363;28;20258;-80
2022/01/19 14:43:59;;;;;;;40.57;21.50;;;5.70;99.90;;;;;;10450111;28;20683;-80
2022/01/19 14:49:02;;;;;;;40.83;23.57;;;4.30;99.90;;;;;;10453129;28;20445;-79
2022/01/19 14:54:12;;;;;;;39.27;21.27;;;4.00;99.90;;;;;;10449381;28;20234;-80
2022/01/19 14:59:17;;;;;;;42.10;22.73;;;3.80;99.90;;;;;;10449682;28;20223;-80
2022/01/19 15:04:20;;;;;;;42.00;20.67;;;3.60;99.90;;;;;;10442657;28;20308;-79
2022/01/19 15:09:22;;;;;;;42.53;23.43;;;3.20;99.90;;;;;;10444048;28;20234;-79
2022/01/19 15:14:25;;;;;;;46.63;24.20;;;3.20;99.90;;;;;;10446446;28;20250;-79
2022/01/19 15:19:27;;;;;;;60.00;30.17;;;3.30;99.90;;;;;;10448819;28;20260;-79
2022/01/19 15:24:30;;;;;;;60.63;29.63;;;3.00;99.90;;;;;;10429886;28;20225;-79
2022/01/19 15:29:33;;;;;;;46.67;24.63;;;3.00;99.90;;;;;;10447622;28;20292;-79
2022/01/19 15:34:36;;;;;;;60.27;30.97;;;2.90;99.90;;;;;;10446287;28;20250;-79
2022/01/19 15:39:40;;;;;;;58.40;30.73;;;2.70;99.90;;;;;;10447688;28;20262;-79
2022/01/19 15:44:43;;;;;;;46.30;24.40;;;2.70;99.90;;;;;;10446125;28;20701;-79
2022/01/19 15:49:46;;;;;;;49.93;25.07;;;2.70;99.90;;;;;;10447236;28;20240;-79
2022/01/19 15:54:49;;;;;;;38.63;21.67;;;2.70;99.90;;;;;;10443607;28;20280;-80
2022/01/19 15:59:52;;;;;;;40.80;20.33;;;2.50;99.90;;;;;;10440385;28;20230;-80
2022/01/19 16:04:55;;;;;;;38.53;20.40;;;2.50;99.90;;;;;;10433185;28;20238;-80
2022/01/19 16:09:58;;;;;;;47.57;23.43;;;2.40;99.90;;;;;;10442705;28;20295;-80
2022/01/19 16:15:02;;;;;;;45.47;24.07;;;2.30;99.90;;;;;;10442231;28;20260;-80
2022/01/19 16:20:05;;;;;;;60.10;29.63;;;2.20;99.90;;;;;;10445030;28;20240;-79
2022/01/19 16:30:29;;;;;;;54.80;25.47;;;2.10;99.90;;;;;;10466811;28;20980;-82
2022/01/19 16:35:32;;;;;;;50.30;23.07;;;2.00;99.90;;;;;;10465749;28;20248;-83
2022/01/19 16:40:34;;;;;;;46.57;23.03;;;2.00;99.90;;;;;;10447498;28;20305;-83
2022/01/19 16:45:37;;;;;;;38.13;20.73;;;2.10;99.90;;;;;;10446226;28;20304;-84
2022/01/19 16:50:41;;;;;;;45.73;24.10;;;2.00;99.90;;;;;;10447567;28;20295;-84
2022/01/19 16:55:44;;;;;;;54.30;25.67;;;1.90;99.90;;;;;;10445530;28;20263;-83
2022/01/19 17:00:47;;;;;;;58.10;29.43;;;1.80;99.90;;;;;;10446303;28;20265;-83
2022/01/19 17:05:50;;;;;;;55.77;29.37;;;1.90;99.90;;;;;;10446316;28;20232;-84
2022/01/19 17:10:57;;;;;;;81.13;34.43;;;1.80;99.90;;;;;;10446726;28;20287;-84
2022/01/19 17:16:31;;;;;;;74.87;34.43;;;1.90;99.90;;;;;;10442893;28;20258;-81
2022/01/19 17:21:25;;;;;;;70.73;32.20;;;1.70;99.90;;;;;;10416887;28;20346;-82
2022/01/19 17:26:28;;;;;;;74.40;33.37;;;1.80;99.90;;;;;;10452665;28;20289;-82
2022/01/19 17:31:50;;;;;;;58.23;30.10;;;1.80;99.90;;;;;;10487567;28;20278;-83
2022/01/19 17:36:53;;;;;;;68.17;32.93;;;1.70;99.90;;;;;;10452863;28;20276;-82
2022/01/19 17:41:56;;;;;;;65.90;31.00;;;1.80;99.90;;;;;;10454096;28;20292;-81
2022/01/19 17:52:24;;;;;;;53.93;25.90;;;4.80;99.90;;;;;;10454232;28;20272;-80
2022/01/19 17:57:26;;;;;;;50.17;27.67;;;5.60;99.90;;;;;;10454002;28;20796;-81
2022/01/19 18:02:29;;;;;;;47.73;22.80;;;5.60;99.90;;;;;;10453157;28;20300;-81
2022/01/19 18:07:33;;;;;;;44.47;24.67;;;6.30;99.90;;;;;;10454830;28;20600;-80
2022/01/19 18:12:35;;;;;;;48.03;27.40;;;6.70;99.90;;;;;;10452405;28;20250;-79
2022/01/19 18:17:38;;;;;;;47.47;26.23;;;4.50;99.90;;;;;;10453079;28;20300;-79
2022/01/19 18:22:40;;;;;;;41.43;21.97;;;4.70;99.90;;;;;;10453939;28;20563;-79
2022/01/19 18:27:44;;;;;;;45.47;23.53;;;5.50;99.90;;;;;;10452588;28;20249;-80
2022/01/19 18:32:47;;;;;;;40.30;21.60;;;6.40;99.90;;;;;;10457024;28;20673;-81
2022/01/19 18:37:54;;;;;;;35.40;20.13;;;7.70;96.20;;;;;;10454186;28;20289;-79
2022/01/19 18:42:58;;;;;;;30.07;19.70;;;9.30;99.90;;;;;;10453549;28;20733;-80
2022/01/19 18:48:00;;;;;;;31.23;18.77;;;7.90;93.10;;;;;;10447859;28;20242;-80
2022/01/19 18:53:03;;;;;;;30.97;19.37;;;7.60;99.90;;;;;;10449932;28;20259;-80
2022/01/19 18:58:06;;;;;;;24.53;16.63;;;9.50;99.90;;;;;;10448617;28;20300;-81
2022/01/19 19:03:08;;;;;;;45.90;16.60;;;6.10;99.90;;;;;;10450020;28;20302;-82
2022/01/19 19:08:15;;;;;;;30.80;17.67;;;7.50;94.60;;;;;;10451443;28;20260;-79
2022/01/19 19:13:18;;;;;;;28.10;16.63;;;4.20;99.90;;;;;;10447584;28;20258;-79
2022/01/19 19:18:21;;;;;;;26.50;17.07;;;3.30;99.90;;;;;;10448790;28;20615;-79
2022/01/19 19:23:24;;;;;;;28.87;16.13;;;3.10;99.90;;;;;;10456097;28;20260;-80
2022/01/19 19:28:26;;;;;;;27.87;17.07;;;3.50;99.90;;;;;;10449725;28;20233;-80
2022/01/19 19:33:29;;;;;;;33.37;17.10;;;3.40;99.90;;;;;;10448896;28;20242;-81
2022/01/19 19:38:36;;;;;;;29.30;17.43;;;3.00;99.90;;;;;;10448489;28;20264;-81
2022/01/19 19:43:39;;;;;;;33.60;17.20;;;2.60;99.90;;;;;;10448998;28;20237;-81
2022/01/19 19:48:41;;;;;;;31.87;16.57;;;3.20;99.90;;;;;;10442849;28;20237;-84
2022/01/19 19:53:44;;;;;;;19.43;12.63;;;3.80;99.90;;;;;;10467831;28;20664;-80
2022/01/19 19:58:46;;;;;;;24.90;11.97;;;10.50;99.20;;;;;;10446015;28;20607;-81
2022/01/19 20:03:49;;;;;;;23.90;16.03;;;12.50;97.50;;;;;;10445073;28;20223;-83
2022/01/19 20:08:53;;;;;;;32.10;18.63;;;9.70;85.40;;;;;;10443720;28;20230;-83
2022/01/19 20:13:55;;;;;;;28.67;18.33;;;5.30;93.70;;;;;;10445808;28;20254;-83
2022/01/19 20:18:58;;;;;;;32.07;18.70;;;3.60;99.90;;;;;;10446947;28;20239;-83
2022/01/19 20:24:00;;;;;;;28.33;15.80;;;4.30;99.90;;;;;;10440169;28;20288;-83
2022/01/19 20:29:03;;;;;;;33.20;18.57;;;4.70;99.90;;;;;;10455381;28;20245;-83
2022/01/19 20:34:06;;;;;;;25.53;15.80;;;3.70;99.90;;;;;;9743766;28;10000709;-84
2022/01/19 20:39:12;;;;;;;27.63;17.03;;;4.80;99.90;;;;;;10441652;28;20258;-83
2022/01/19 20:44:16;;;;;;;26.67;16.40;;;4.40;99.90;;;;;;10440126;28;20230;-83
2022/01/19 20:49:19;;;;;;;29.80;16.97;;;5.30;99.90;;;;;;10444562;28;20304;-84
2022/01/19 20:54:22;;;;;;;26.77;16.90;;;3.20;99.90;;;;;;10447595;28;20285;-83
2022/01/19 20:59:24;;;;;;;27.63;16.83;;;2.90;99.90;;;;;;10451008;28;20695;-84
2022/01/19 21:04:27;;;;;;;48.50;23.10;;;3.40;99.90;;;;;;10452530;28;20640;-83
2022/01/19 21:09:29;;;;;;;31.53;17.57;;;2.60;99.90;;;;;;10449338;28;20282;-82
2022/01/19 21:14:32;;;;;;;32.40;17.30;;;2.80;99.90;;;;;;10450049;28;20711;-81
2022/01/19 21:19:35;;;;;;;24.80;15.30;;;2.90;99.90;;;;;;10440967;28;20231;-82
2022/01/19 21:24:38;;;;;;;32.33;17.97;;;3.60;99.90;;;;;;10450600;28;20632;-82
2022/01/19 21:29:42;;;;;;;28.23;16.37;;;2.60;99.90;;;;;;10452965;28;20221;-83
2022/01/19 21:34:44;;;;;;;29.10;17.80;;;3.20;99.90;;;;;;10453480;28;20296;-82
2022/01/19 21:39:48;;;;;;;27.90;14.30;;;4.60;99.90;;;;;;10452576;28;20254;-82
2022/01/19 21:44:51;;;;;;;35.90;17.40;;;4.90;99.90;;;;;;10453544;28;20246;-82
2022/01/19 21:49:53;;;;;;;39.27;21.40;;;2.90;99.90;;;;;;10452286;28;20259;-83
2022/01/19 21:54:58;;;;;;;34.40;17.43;;;2.60;99.90;;;;;;10473157;28;20283;-82
2022/01/19 22:00:00;;;;;;;36.57;19.50;;;2.60;99.90;;;;;;10449309;28;20229;-82
2022/01/19 22:05:06;;;;;;;29.37;17.50;;;2.70;99.90;;;;;;10454846;28;20245;-82
2022/01/19 22:10:10;;;;;;;35.13;17.90;;;3.60;99.90;;;;;;10448835;28;20341;-85
2022/01/19 22:15:13;;;;;;;30.70;16.67;;;2.90;99.90;;;;;;10446981;28;20278;-84
2022/01/19 22:20:15;;;;;;;34.53;18.03;;;2.60;99.90;;;;;;10451381;28;20617;-83
2022/01/19 22:25:18;;;;;;;32.13;16.43;;;2.80;99.90;;;;;;10450279;28;20233;-86
2022/01/19 22:30:21;;;;;;;27.93;16.47;;;3.70;99.90;;;;;;10448172;28;20624;-85
2022/01/19 22:35:24;;;;;;;26.20;16.40;;;2.80;99.90;;;;;;10451239;28;20248;-87
2022/01/19 22:40:27;;;;;;;29.40;17.23;;;2.90;99.90;;;;;;10445168;28;20291;-87
2022/01/19 22:45:30;;;;;;;25.73;15.83;;;2.50;99.90;;;;;;10451282;28;20821;-85
2022/01/19 22:50:32;;;;;;;24.17;13.47;;;9.30;99.90;;;;;;10451003;28;20239;-84
2022/01/19 22:55:35;;;;;;;21.47;10.93;;;11.60;99.90;;;;;;10446225;28;20250;-84
2022/01/19 23:00:46;;;;;;;17.53;11.57;;;12.80;99.90;;;;;;10449153;28;20226;-85
2022/01/19 23:05:54;;;;;;;19.37;11.80;;;13.20;99.90;;;;;;10439892;28;20238;-84
2022/01/19 23:10:56;;;;;;;21.70;11.90;;;13.30;99.90;;;;;;10450754;28;20284;-85
2022/01/19 23:16:01;;;;;;;17.60;11.43;;;13.50;99.90;;;;;;10450068;28;20269;-85
2022/01/19 23:21:03;;;;;;;17.57;10.90;;;13.60;99.90;;;;;;10447947;28;20285;-85
2022/01/19 23:26:06;;;;;;;17.93;11.80;;;13.80;99.90;;;;;;10449617;28;20240;-86
2022/01/19 23:31:08;;;;;;;19.90;10.63;;;13.70;99.90;;;;;;10450884;28;20263;-85
2022/01/19 23:36:13;;;;;;;14.37;10.40;;;13.50;99.40;;;;;;10448705;28;20256;-85
2022/01/19 23:52:03;;;;;;;16.77;10.13;;;13.70;98.20;;;;;;10450689;28;20210;-85
